• Join FlightAware (Why Join?)
  • Login
  • US Flag 
Rudolph Flight #1: Arrived! 
01:02AM EST


 

Airport Tracker/Info


-or-


 

Live Flight TrackerFlight Track Log ✈ SKW5631 ✈ 25-Apr-2013 ✈ KDEN - KCOD

Flight Track Log - Related Links

Times and Time Zones

All times are in EDT time to prevent confusion due to time zone crossing. See the SKW5631 flight status page for this flight to view local times or setup timezone preferences in your user account.

Time Position Orientation Groundspeed Altitude Reporting Facility
EDT Latitude Longitude Course Direction KTS MPH feet Rate Location/Type
09:44PM 39.9167 -104.6833 346° North 166 191 6,700  Level Denver TRACON
09:45PM 39.9667 -104.6833 360° North 222 255 8,500 1,740 Climbing Denver TRACON
09:46PM 40.0139 -104.6678 14° North 244 281 9,600 2,040 Climbing Denver Center
09:47PM 40.0956 -104.6814 353° North 303 349 12,000 2,460 Climbing Denver Center
09:48PM 40.1831 -104.7028 349° North 300 345 14,800 2,460 Climbing Denver Center
09:49PM 40.2697 -104.7242 349° North 317 365 17,100 2,220 Climbing Denver Center
09:50PM 40.4387 -104.8573 346° North  Level FlightAware Approximate
09:50PM 40.3631 -104.7478 349° North 314 361 19,500  Level Denver Center
09:51PM 40.4547 -104.7697 350° North 333 383 21,300 1,680 Climbing Denver Center
09:52PM 40.5464 -104.7936 349° North 339 390 23,000 1,500 Climbing Denver Center
09:53PM 40.6417 -104.8175 349° North 343 395 24,500 1,320 Climbing Denver Center
09:54PM 40.7422 -104.8411 350° North 365 420 25,800 1,200 Climbing Denver Center
09:55PM 40.8383 -104.8764 344° North 358 412 27,100 1,260 Climbing Denver Center
09:56PM 40.9511 -104.9319 340° North 367 422 28,500 1,260 Climbing Denver Center
09:57PM 41.0483 -104.9797 340° North 366 421 29,800 1,080 Climbing Denver Center
09:58PM 41.1386 -105.0236 340° North 362 417 30,800 720 Climbing Denver Center
09:59PM 41.2464 -105.0778 339° North 370 426 31,300 480 Climbing Denver Center
10:00PM 41.3417 -105.1256 339° North 381 438 31,800 300 Climbing Denver Center
10:01PM 41.4392 -105.1736 340° North 387 445 32,000 60 Climbing Denver Center
10:02PM 41.5578 -105.2369 338° Northwest 406 467 32,000  Level Denver Center
10:03PM 41.6467 -105.3239 324° Northwest 410 472 32,000  Level Denver Center
10:04PM 41.7481 -105.4350 321° Northwest 419 482 32,000  Level Denver Center
10:05PM 41.8356 -105.5289 321° Northwest 419 482 32,000  Level Denver Center
10:06PM 41.9364 -105.6386 321° Northwest 415 478 32,000  Level Denver Center
10:07PM 42.0208 -105.7294 321° Northwest 409 471 32,000  Level Denver Center
10:08PM 42.1183 -105.8375 321° Northwest 405 466 32,000  Level Denver Center
10:10PM 42.2011 -105.9300 320° Northwest 403 464 32,000  Level Denver Center
10:11PM 42.2978 -106.0367 321° Northwest 402 463 32,000  Level Denver Center
10:12PM 42.3778 -106.1261 320° Northwest 393 452 32,000  Level Denver Center
10:13PM 42.4597 -106.2181 320° Northwest 397 457 32,000  Level Denver Center
10:14PM 42.5550 -106.3244 321° Northwest 396 456 32,000  Level Denver Center
10:15PM 42.6367 -106.4161 320° Northwest 398 458 32,000  Level Denver Center
10:16PM 42.7303 -106.5244 320° Northwest 397 457 32,000  Level Denver Center
10:17PM 42.8119 -106.6156 321° Northwest 394 453 32,000  Level Denver Center
10:18PM 42.9072 -106.7242 320° Northwest 399 459 32,000  Level Denver Center
10:19PM 42.9894 -106.8186 320° Northwest 402 463 32,000  Level Denver Center
10:20PM 43.0861 -106.9294 320° Northwest 407 468 32,000  Level Denver Center
10:20PM 43.1258 -106.9750 320° Northwest 407 468 32,000  Level Salt Lake Center
10:21PM 43.2094 -107.0717 320° Northwest 407 468 32,000  Level Salt Lake Center
10:22PM 43.2647 -107.1339 321° Northwest 405 466 32,000  Level Denver Center
10:23PM 43.3467 -107.2294 320° Northwest 403 464 32,000  Level Denver Center
10:23PM 43.3875 -107.2775 319° Northwest 402 463 32,000  Level Salt Lake Center
10:24PM 43.4844 -107.3908 320° Northwest 408 470 32,000  Level Salt Lake Center
10:26PM 43.5664 -107.4883 319° Northwest 408 470 32,000  Level Salt Lake Center
10:27PM 43.6631 -107.6006 320° Northwest 405 466 32,000  Level Salt Lake Center
10:28PM 43.7456 -107.6997 319° Northwest 409 471 32,000  Level Salt Lake Center
10:29PM 43.8283 -107.7972 320° Northwest 407 468 32,000 -1,260 Level Salt Lake Center
10:30PM 43.9261 -107.9133 319° Northwest 413 475 29,400 -2,880 Descending Salt Lake Center
10:31PM 44.0094 -108.0153 319° Northwest 416 479 26,100 -3,600 Descending Salt Lake Center
10:32PM 44.0933 -108.1461 312° West 407 468 22,100 -3,540 Descending Salt Lake Center
10:33PM 44.1625 -108.2531 312° West 398 458 18,900 -3,000 Descending Salt Lake Center
10:34PM 44.2281 -108.3547 312° West 384 442 16,000 -2,400 Descending Salt Lake Center
10:35PM 44.2989 -108.4631 312° West 360 414 14,000 -1,020 Descending Salt Lake Center
10:36PM 44.3494 -108.5417 312° West 319 367 14,000 -600 Level Salt Lake Center
10:37PM 44.4044 -108.6267 312° West 283 326 12,800 -1,500 Descending Salt Lake Center
10:38PM 44.4506 -108.6975 312° West 268 308 11,000 -1,860 Descending Salt Lake Center
10:39PM 44.5075 -108.7539 325° Northwest 262 302 9,100 -1,320 Descending Salt Lake Center
10:40PM 44.5747 -108.7994 334° Northwest 249 287 8,300 -780 Descending Salt Lake Center
10:41PM 44.6144 -108.8356 327° Northwest 210 242 7,600 -540 Descending Salt Lake Center
10:42PM 44.6019 -108.8942 253° West 181 208 7,300 -660 Descending Salt Lake Center
10:43PM 44.5689 -108.9344 221° Southwest 174 200 6,300 -600 Descending Salt Lake Center
10:44PM 44.5411 -108.9797 229° Southwest 165 190 6,100 -240 Descending Salt Lake Center
10:46PM 44.5167 -109.0167 200° South  Level FlightAware Approximate
10:53PM 44.5202 -109.0238 200° South  Level Estimated